EZY8CB EGKK-LGMK
Flight info
| Callsign | EZY8CB |
|---|---|
| Flight time | N/A |
| Altitude | 35000 |
| Route | MIMFO Y312 DVR UL9 KONAN UL607 KOK M150 PITES DCT EDISA DCT UTABA DCT IRBIR/N0452F370 DCT UMVEG DCT VEKEN DCT ETOBI DCT MEDUX UM867 KOGAT DCT TALAS UM749 ELPIS UP20 ROPOX UN132 KEA R19 VARIX |
| Aircraft | A21N/M-SDE2E3FGHIRWXY/LB1 |
Departure
| Time | 2026-04-15 11:29 |
|---|---|
| Airport | London Gatwick Airport (EGKK) |
Arrival
| Time | N/A |
|---|---|
| Airport | Mykonos Island National Airport (LGMK) |
| Time | Latitude | Longitude | Altitude | Speed | Heading |
|---|---|---|---|---|---|
| 2026-04-15 10:46 | 51.15419 | -0.17861 | 210 ft | 0 kts | 167° |
| 2026-04-15 11:20 | 51.15440 | -0.17868 | 210 ft | 4 kts | 167° |
| 2026-04-15 11:20 | 51.15463 | -0.17877 | 210 ft | 4 kts | 155° |
| 2026-04-15 11:20 | 51.15478 | -0.17901 | 210 ft | 4 kts | 96° |
| 2026-04-15 11:20 | 51.15477 | -0.17937 | 210 ft | 1 kts | 78° |
| 2026-04-15 11:21 | 51.15476 | -0.17944 | 210 ft | 0 kts | 78° |
| 2026-04-15 11:24 | 51.15476 | -0.17939 | 210 ft | 2 kts | 78° |
| 2026-04-15 11:24 | 51.15482 | -0.17897 | 213 ft | 6 kts | 78° |
| 2026-04-15 11:25 | 51.15493 | -0.17811 | 214 ft | 10 kts | 77° |
| 2026-04-15 11:25 | 51.15511 | -0.17683 | 212 ft | 14 kts | 78° |
| 2026-04-15 11:25 | 51.15533 | -0.17526 | 213 ft | 15 kts | 77° |
| 2026-04-15 11:25 | 51.15474 | -0.17411 | 210 ft | 16 kts | 168° |
| 2026-04-15 11:26 | 51.15358 | -0.17369 | 214 ft | 18 kts | 167° |
| 2026-04-15 11:26 | 51.15244 | -0.17296 | 215 ft | 19 kts | 153° |
| 2026-04-15 11:26 | 51.15190 | -0.17241 | 210 ft | 6 kts | 138° |
| 2026-04-15 11:26 | 51.15176 | -0.17224 | 210 ft | 0 kts | 146° |
| 2026-04-15 11:27 | 51.15175 | -0.17223 | 210 ft | 0 kts | 146° |
| 2026-04-15 11:27 | 51.15166 | -0.17213 | 210 ft | 3 kts | 146° |
| 2026-04-15 11:27 | 51.15145 | -0.17183 | 210 ft | 5 kts | 131° |
| 2026-04-15 11:28 | 51.15096 | -0.17150 | 210 ft | 13 kts | 178° |
| 2026-04-15 11:28 | 51.15052 | -0.17274 | 210 ft | 15 kts | 259° |
| 2026-04-15 11:28 | 51.14994 | -0.17692 | 213 ft | 76 kts | 257° |
| 2026-04-15 11:28 | 51.14833 | -0.18859 | 209 ft | 137 kts | 258° |
| 2026-04-15 11:29 | 51.14608 | -0.20540 | 452 ft | 159 kts | 257° |
| 2026-04-15 11:29 | 51.14401 | -0.22264 | 1079 ft | 159 kts | 256° |
| 2026-04-15 11:29 | 51.14172 | -0.24004 | 1671 ft | 164 kts | 254° |
| 2026-04-15 11:29 | 51.13900 | -0.25864 | 2174 ft | 181 kts | 255° |
| 2026-04-15 11:30 | 51.13649 | -0.27867 | 2743 ft | 197 kts | 258° |
| 2026-04-15 11:30 | 51.13870 | -0.30182 | 3309 ft | 223 kts | 289° |
| 2026-04-15 11:30 | 51.14887 | -0.32175 | 3921 ft | 247 kts | 321° |
| 2026-04-15 11:30 | 51.16564 | -0.33024 | 4696 ft | 262 kts | 358° |
| 2026-04-15 11:31 | 51.18304 | -0.32307 | 5521 ft | 267 kts | 32° |
| 2026-04-15 11:31 | 51.19612 | -0.30200 | 6245 ft | 271 kts | 66° |
| 2026-04-15 11:31 | 51.20085 | -0.27359 | 7027 ft | 265 kts | 90° |
| 2026-04-15 11:31 | 51.20238 | -0.24413 | 7834 ft | 268 kts | 90° |
| 2026-04-15 11:32 | 51.20444 | -0.21434 | 8623 ft | 273 kts | 88° |
| 2026-04-15 11:32 | 51.20720 | -0.18412 | 9406 ft | 277 kts | 86° |
| 2026-04-15 11:32 | 51.21051 | -0.15359 | 10186 ft | 281 kts | 84° |
| 2026-04-15 11:32 | 51.21419 | -0.12238 | 10730 ft | 295 kts | 84° |
| 2026-04-15 11:33 | 51.21830 | -0.08899 | 11073 ft | 317 kts | 83° |
| 2026-04-15 11:33 | 51.22285 | -0.05323 | 11394 ft | 340 kts | 83° |
| 2026-04-15 11:33 | 51.22761 | -0.01632 | 11693 ft | 360 kts | 82° |
| 2026-04-15 11:33 | 51.23285 | 0.02397 | 11998 ft | 379 kts | 82° |
| 2026-04-15 11:34 | 51.23835 | 0.06599 | 12278 ft | 397 kts | 81° |
| 2026-04-15 11:34 | 51.24407 | 0.11016 | 12529 ft | 413 kts | 81° |
| 2026-04-15 11:34 | 51.24983 | 0.15504 | 12856 ft | 422 kts | 81° |
| 2026-04-15 11:34 | 51.25392 | 0.20173 | 13355 ft | 423 kts | 91° |
| 2026-04-15 11:35 | 51.25184 | 0.24838 | 13892 ft | 423 kts | 99° |
| 2026-04-15 11:35 | 51.24814 | 0.29504 | 14382 ft | 426 kts | 100° |
| 2026-04-15 11:35 | 51.24439 | 0.34209 | 14851 ft | 429 kts | 99° |
| 2026-04-15 11:35 | 51.24065 | 0.38956 | 15337 ft | 432 kts | 99° |
| 2026-04-15 11:36 | 51.23694 | 0.43731 | 15804 ft | 436 kts | 99° |
| 2026-04-15 11:36 | 51.23323 | 0.48541 | 16224 ft | 438 kts | 99° |
| 2026-04-15 11:36 | 51.22950 | 0.53383 | 16608 ft | 441 kts | 99° |
| 2026-04-15 11:36 | 51.22571 | 0.58268 | 16996 ft | 444 kts | 99° |
| 2026-04-15 11:37 | 51.22186 | 0.63190 | 17376 ft | 447 kts | 99° |
| 2026-04-15 11:37 | 51.21797 | 0.68132 | 17751 ft | 450 kts | 99° |
| 2026-04-15 11:37 | 51.21407 | 0.73096 | 18125 ft | 452 kts | 99° |
| 2026-04-15 11:37 | 51.21012 | 0.78075 | 18492 ft | 455 kts | 99° |
| 2026-04-15 11:38 | 51.20610 | 0.83113 | 18855 ft | 458 kts | 99° |
| 2026-04-15 11:38 | 51.20208 | 0.88092 | 19210 ft | 460 kts | 99° |
| 2026-04-15 11:38 | 51.19798 | 0.93173 | 19587 ft | 463 kts | 99° |
| 2026-04-15 11:38 | 51.19386 | 0.98259 | 19963 ft | 466 kts | 99° |
| 2026-04-15 11:39 | 51.18963 | 1.03425 | 20325 ft | 469 kts | 99° |
| 2026-04-15 11:39 | 51.18537 | 1.08606 | 20693 ft | 471 kts | 99° |
| 2026-04-15 11:39 | 51.18104 | 1.13810 | 21085 ft | 474 kts | 99° |
| 2026-04-15 11:39 | 51.17669 | 1.19033 | 21515 ft | 477 kts | 99° |
| 2026-04-15 11:40 | 51.17235 | 1.24234 | 21940 ft | 480 kts | 99° |
| 2026-04-15 11:40 | 51.16793 | 1.29527 | 22343 ft | 483 kts | 99° |
| 2026-04-15 11:40 | 51.16350 | 1.34848 | 22734 ft | 486 kts | 98° |
| 2026-04-15 11:40 | 51.16052 | 1.40238 | 23106 ft | 489 kts | 96° |
| 2026-04-15 11:41 | 51.15882 | 1.43823 | 23343 ft | 491 kts | 96° |
| 2026-04-15 11:41 | 51.15623 | 1.49266 | 23692 ft | 494 kts | 96° |
| 2026-04-15 11:41 | 51.15359 | 1.54731 | 24098 ft | 495 kts | 96° |
| 2026-04-15 11:41 | 51.15094 | 1.60179 | 24567 ft | 493 kts | 96° |
| 2026-04-15 11:42 | 51.14826 | 1.65633 | 25021 ft | 493 kts | 96° |
| 2026-04-15 11:42 | 51.14551 | 1.71068 | 25470 ft | 492 kts | 96° |
| 2026-04-15 11:42 | 51.14277 | 1.76497 | 25892 ft | 492 kts | 96° |
| 2026-04-15 11:42 | 51.14006 | 1.81927 | 26328 ft | 491 kts | 96° |
| 2026-04-15 11:43 | 51.13730 | 1.87355 | 26750 ft | 491 kts | 96° |
| 2026-04-15 11:43 | 51.13452 | 1.92768 | 27158 ft | 491 kts | 96° |
| 2026-04-15 11:43 | 51.13170 | 1.98174 | 27581 ft | 490 kts | 96° |
| 2026-04-15 11:43 | 51.12876 | 2.03575 | 27978 ft | 489 kts | 96° |
| 2026-04-15 11:44 | 51.12580 | 2.08979 | 28374 ft | 489 kts | 96° |
| 2026-04-15 11:44 | 51.12286 | 2.14372 | 28734 ft | 489 kts | 96° |
| 2026-04-15 11:44 | 51.11996 | 2.19763 | 29113 ft | 488 kts | 96° |
| 2026-04-15 11:44 | 51.11706 | 2.25151 | 29454 ft | 488 kts | 95° |
| 2026-04-15 11:45 | 51.11413 | 2.30524 | 29833 ft | 487 kts | 96° |
| 2026-04-15 11:45 | 51.11119 | 2.35840 | 30169 ft | 487 kts | 96° |
| 2026-04-15 11:45 | 51.10824 | 2.41215 | 30551 ft | 486 kts | 96° |
| 2026-04-15 11:45 | 51.10528 | 2.46558 | 30905 ft | 485 kts | 96° |
| 2026-04-15 11:46 | 51.10228 | 2.51909 | 31228 ft | 485 kts | 96° |
| 2026-04-15 11:46 | 51.09925 | 2.57252 | 31557 ft | 485 kts | 96° |
| 2026-04-15 11:46 | 51.09532 | 2.62578 | 31869 ft | 484 kts | 101° |
| 2026-04-15 11:46 | 51.08600 | 2.67690 | 32151 ft | 482 kts | 114° |
| 2026-04-15 11:47 | 51.07135 | 2.72467 | 32422 ft | 480 kts | 120° |
| 2026-04-15 11:47 | 51.05551 | 2.77142 | 32720 ft | 480 kts | 120° |
| 2026-04-15 11:47 | 51.03961 | 2.81810 | 33003 ft | 479 kts | 120° |
| 2026-04-15 11:47 | 51.02389 | 2.86472 | 33303 ft | 478 kts | 120° |
| 2026-04-15 11:48 | 51.00826 | 2.91133 | 33575 ft | 478 kts | 120° |
| 2026-04-15 11:48 | 50.99267 | 2.95792 | 33811 ft | 478 kts | 119° |
| 2026-04-15 11:48 | 50.97702 | 3.00462 | 34039 ft | 478 kts | 119° |
| 2026-04-15 11:48 | 50.96142 | 3.05110 | 34270 ft | 478 kts | 119° |
| 2026-04-15 11:49 | 50.94597 | 3.09701 | 34489 ft | 478 kts | 119° |
| 2026-04-15 11:49 | 50.93031 | 3.14352 | 34680 ft | 478 kts | 119° |
| 2026-04-15 11:49 | 50.91455 | 3.19014 | 34869 ft | 478 kts | 119° |
| 2026-04-15 11:49 | 50.89883 | 3.23660 | 35043 ft | 479 kts | 119° |
| 2026-04-15 11:50 | 50.88306 | 3.28311 | 35237 ft | 479 kts | 119° |
| 2026-04-15 11:50 | 50.86730 | 3.32956 | 35416 ft | 479 kts | 119° |
| 2026-04-15 11:50 | 50.85147 | 3.37610 | 35577 ft | 479 kts | 119° |
| 2026-04-15 11:50 | 50.83562 | 3.42262 | 35743 ft | 479 kts | 119° |
| 2026-04-15 11:51 | 50.81979 | 3.46893 | 35898 ft | 479 kts | 119° |
| 2026-04-15 11:51 | 50.80388 | 3.51544 | 36051 ft | 480 kts | 119° |
| 2026-04-15 11:51 | 50.78801 | 3.56174 | 36197 ft | 480 kts | 119° |
| 2026-04-15 11:51 | 50.77208 | 3.60815 | 36365 ft | 480 kts | 119° |
| 2026-04-15 11:52 | 50.75618 | 3.65436 | 36518 ft | 480 kts | 119° |
| 2026-04-15 11:52 | 50.74044 | 3.70003 | 36662 ft | 480 kts | 119° |
| 2026-04-15 11:52 | 50.72445 | 3.74637 | 36844 ft | 479 kts | 119° |
| 2026-04-15 11:52 | 50.70847 | 3.79257 | 37043 ft | 478 kts | 119° |
| 2026-04-15 11:53 | 50.69260 | 3.83834 | 37199 ft | 477 kts | 119° |
| 2026-04-15 11:53 | 50.67667 | 3.88424 | 37231 ft | 474 kts | 119° |
| 2026-04-15 11:53 | 50.64506 | 3.97507 | 37210 ft | 472 kts | 119° |
| 2026-04-15 11:54 | 50.63974 | 3.99035 | 37206 ft | 472 kts | 119° |